createdAt,value
2022-11-18T00:01:18.740Z,29.40
2022-11-18T00:03:46.402Z,27.40
2022-11-18T00:06:18.992Z,47.20
2022-11-18T00:08:46.847Z,29.20
2022-11-18T00:11:36.706Z,33.60
2022-11-18T00:14:20.107Z,26.10
2022-11-18T00:17:02.088Z,26.40
2022-11-18T00:19:37.964Z,28.50
2022-11-18T00:22:07.624Z,30.50
2022-11-18T00:24:35.159Z,26.70
2022-11-18T00:27:02.422Z,22.30
2022-11-18T00:29:31.148Z,19.20
2022-11-18T00:31:58.918Z,14.20
2022-11-18T00:34:26.316Z,16.60
2022-11-18T00:36:53.596Z,15.60
2022-11-18T00:39:21.613Z,13.70
2022-11-18T00:42:08.001Z,13.50
2022-11-18T00:44:36.142Z,12.50
2022-11-18T00:47:03.805Z,12.80
2022-11-18T00:49:31.004Z,12.60
2022-11-18T00:51:58.104Z,13.70
2022-11-18T00:54:25.125Z,13.70
2022-11-18T00:56:52.200Z,11.40
2022-11-18T00:59:19.618Z,12.60
2022-11-18T01:01:47.042Z,12.60
2022-11-18T01:04:14.122Z,12.80
2022-11-18T01:06:41.521Z,9.30
2022-11-18T01:09:08.622Z,9.30
2022-11-18T01:11:54.457Z,7.80
2022-11-18T01:14:24.858Z,8.60
2022-11-18T01:16:55.262Z,8.20
2022-11-18T01:19:22.773Z,10.90
2022-11-18T01:21:50.637Z,15.70
2022-11-18T01:24:17.991Z,9.60
2022-11-18T01:26:45.017Z,10.10
2022-11-18T01:29:12.140Z,7.90
2022-11-18T01:31:55.624Z,10.10
2022-11-18T01:34:28.895Z,8.80
2022-11-18T01:36:57.450Z,8.10
2022-11-18T01:39:25.087Z,6.50
2022-11-18T01:41:52.186Z,6.70
2022-11-18T01:45:05.336Z,7.40
2022-11-18T01:47:58.245Z,6.50
2022-11-18T01:50:26.678Z,5.10
2022-11-18T01:52:58.859Z,6.60
2022-11-18T01:55:29.887Z,7.10
2022-11-18T01:58:04.411Z,6.60
2022-11-18T02:00:31.457Z,6.00
2022-11-18T02:02:59.664Z,5.90
2022-11-18T02:05:27.192Z,6.20
2022-11-18T02:07:54.189Z,5.70
2022-11-18T02:10:23.441Z,6.60
2022-11-18T02:12:52.459Z,7.20
2022-11-18T02:15:29.287Z,7.20
2022-11-18T02:18:13.205Z,6.60
2022-11-18T02:20:42.792Z,6.50
2022-11-18T02:24:02.142Z,9.20
2022-11-18T02:27:06.407Z,5.60
2022-11-18T02:29:43.827Z,4.90
2022-11-18T02:32:17.683Z,6.00
2022-11-18T02:35:06.363Z,5.70
2022-11-18T02:38:15.292Z,5.40
2022-11-18T02:40:46.130Z,3.70
2022-11-18T02:43:22.911Z,4.80
2022-11-18T02:45:53.644Z,5.60
2022-11-18T02:48:24.734Z,5.10
2022-11-18T02:50:53.153Z,4.00
2022-11-18T02:53:23.463Z,4.80
2022-11-18T02:55:52.253Z,4.80
2022-11-18T02:58:21.374Z,5.30
2022-11-18T03:00:56.283Z,5.10
2022-11-18T03:03:28.094Z,7.30
2022-11-18T03:06:07.736Z,4.90
2022-11-18T03:08:46.277Z,6.90
2022-11-18T03:11:18.529Z,6.00
2022-11-18T03:14:10.761Z,7.80
2022-11-18T03:16:47.981Z,6.10
2022-11-18T03:19:22.498Z,5.50
2022-11-18T03:22:04.444Z,5.40
2022-11-18T03:24:35.108Z,5.80
2022-11-18T03:27:16.872Z,5.10
2022-11-18T03:29:50.958Z,6.30
2022-11-18T03:32:23.562Z,5.00
2022-11-18T03:34:57.691Z,7.60
2022-11-18T03:37:26.760Z,4.80
2022-11-18T03:40:01.168Z,4.30
2022-11-18T03:42:35.127Z,3.60
2022-11-18T03:45:10.369Z,3.70
2022-11-18T03:47:42.589Z,7.90
2022-11-18T03:50:33.600Z,3.60
2022-11-18T03:53:02.772Z,4.80
2022-11-18T03:55:40.524Z,3.60
2022-11-18T03:58:21.369Z,6.60
2022-11-18T04:00:51.799Z,4.60
2022-11-18T04:03:19.023Z,4.30
2022-11-18T04:05:49.218Z,3.40
2022-11-18T04:08:24.458Z,5.70
2022-11-18T04:11:00.069Z,6.10
2022-11-18T04:16:02.300Z,5.20
2022-11-18T04:18:29.317Z,5.30
2022-11-18T04:20:56.366Z,6.60
2022-11-18T04:23:23.413Z,8.40
2022-11-18T04:25:50.412Z,5.80
2022-11-18T04:28:17.484Z,6.20
2022-11-18T04:30:44.533Z,5.60
2022-11-18T04:33:11.533Z,6.30
2022-11-18T04:35:38.551Z,6.60
2022-11-18T04:38:05.478Z,8.20
2022-11-18T04:40:32.494Z,6.50
2022-11-18T04:42:59.593Z,5.70
2022-11-18T04:45:26.617Z,6.20
2022-11-18T04:47:55.705Z,5.10
2022-11-18T04:50:25.961Z,8.40
2022-11-18T04:52:53.058Z,10.00
2022-11-18T04:55:20.644Z,18.00
2022-11-18T04:57:47.726Z,19.20
2022-11-18T05:00:15.280Z,12.10
2022-11-18T05:02:42.276Z,9.90
2022-11-18T05:05:09.502Z,11.20
2022-11-18T05:07:36.613Z,10.50
2022-11-18T05:10:04.012Z,20.90
2022-11-18T05:12:49.361Z,11.70
2022-11-18T05:15:21.325Z,21.00
2022-11-18T05:17:48.375Z,19.50
2022-11-18T05:20:15.949Z,12.50
2022-11-18T05:22:42.946Z,13.10
2022-11-18T05:25:10.260Z,22.30
2022-11-18T05:27:37.335Z,20.90
2022-11-18T05:30:05.379Z,20.40
2022-11-18T05:32:32.428Z,24.00
2022-11-18T05:34:59.427Z,16.80
2022-11-18T05:37:26.448Z,10.60
2022-11-18T05:39:53.547Z,13.50
2022-11-18T05:42:39.693Z,16.40
2022-11-18T05:45:07.062Z,28.20
2022-11-18T05:47:54.040Z,28.80
2022-11-18T05:50:21.604Z,21.90
2022-11-18T05:52:48.854Z,27.80
2022-11-18T05:55:17.462Z,38.20
2022-11-18T05:57:45.330Z,32.70
2022-11-18T06:00:13.095Z,30.70
2022-11-18T06:02:43.158Z,41.80
2022-11-18T06:05:12.464Z,34.10
2022-11-18T06:07:43.076Z,30.80
2022-11-18T06:10:14.016Z,95.40
2022-11-18T06:12:45.872Z,133.20
2022-11-18T06:15:23.318Z,100.70
2022-11-18T06:18:01.937Z,41.80
2022-11-18T06:20:29.569Z,41.80
2022-11-18T06:22:58.314Z,20.00
2022-11-18T06:25:25.741Z,18.20
2022-11-18T06:27:56.243Z,30.60
2022-11-18T06:30:23.454Z,21.60
2022-11-18T06:32:50.568Z,16.20
2022-11-18T06:35:17.748Z,22.00
2022-11-18T06:37:44.823Z,21.20
2022-11-18T06:40:12.483Z,50.30
2022-11-18T06:42:58.347Z,21.00
2022-11-18T06:45:25.480Z,19.60
2022-11-18T06:47:56.873Z,30.40
2022-11-18T06:50:24.229Z,44.10
2022-11-18T06:52:51.252Z,28.70
2022-11-18T06:55:18.352Z,27.50
2022-11-18T06:57:45.683Z,26.70
2022-11-18T07:00:13.721Z,22.70
2022-11-18T07:02:40.773Z,22.10
2022-11-18T07:05:08.155Z,13.90
2022-11-18T07:07:41.515Z,11.10
2022-11-18T07:10:10.156Z,12.50
2022-11-18T07:12:37.184Z,12.70
2022-11-18T07:15:04.553Z,12.80
2022-11-18T07:17:31.756Z,22.20
2022-11-18T07:19:58.843Z,30.50
2022-11-18T07:22:25.873Z,23.50
2022-11-18T07:24:52.860Z,32.90
2022-11-18T07:27:19.909Z,13.60
2022-11-18T07:29:47.518Z,13.20
2022-11-18T07:32:14.594Z,10.70
2022-11-18T07:34:41.589Z,19.30
2022-11-18T07:37:08.614Z,88.60
2022-11-18T07:39:35.661Z,141.70
2022-11-18T07:42:02.713Z,126.30
2022-11-18T07:44:29.757Z,38.00
2022-11-18T07:46:56.833Z,19.00
2022-11-18T07:49:23.854Z,22.00
2022-11-18T07:51:50.980Z,19.80
2022-11-18T07:54:18.084Z,33.90
2022-11-18T07:56:45.357Z,23.90
2022-11-18T07:59:12.355Z,19.40
2022-11-18T08:01:39.601Z,30.60
2022-11-18T08:04:09.368Z,15.10
2022-11-18T08:06:37.567Z,11.80
2022-11-18T08:09:06.126Z,8.30
2022-11-18T08:11:33.640Z,7.00
2022-11-18T08:14:00.762Z,14.50
2022-11-18T08:16:28.883Z,9.90
2022-11-18T08:18:55.934Z,12.10
2022-11-18T08:21:23.395Z,15.00
2022-11-18T08:23:52.383Z,20.00
2022-11-18T08:26:20.767Z,16.80
2022-11-18T08:28:48.704Z,10.60
2022-11-18T08:31:18.881Z,9.50
2022-11-18T08:33:46.413Z,6.60
2022-11-18T08:36:20.325Z,22.90
2022-11-18T08:38:47.472Z,18.00
2022-11-18T08:41:17.413Z,10.50
2022-11-18T08:43:44.589Z,7.90
2022-11-18T08:46:11.640Z,7.70
2022-11-18T08:48:38.682Z,18.30
2022-11-18T08:51:05.865Z,11.40
2022-11-18T08:53:33.137Z,17.50
2022-11-18T08:56:01.271Z,13.90
2022-11-18T08:58:29.029Z,13.70
2022-11-18T09:00:56.078Z,24.60
2022-11-18T09:03:23.615Z,15.00
2022-11-18T09:05:50.902Z,21.50
2022-11-18T09:08:18.017Z,13.30
2022-11-18T09:10:45.066Z,32.70
2022-11-18T09:13:42.590Z,43.80
2022-11-18T09:15:59.971Z,20.20
2022-11-18T09:18:26.971Z,64.80
2022-11-18T09:20:56.218Z,51.90
2022-11-18T09:23:23.705Z,26.30
2022-11-18T09:26:00.153Z,14.50
2022-11-18T09:28:27.373Z,17.40
2022-11-18T09:30:55.190Z,23.40
2022-11-18T09:33:23.012Z,24.90
2022-11-18T09:35:50.362Z,22.60
2022-11-18T09:38:17.410Z,23.70
2022-11-18T09:40:56.363Z,93.70
2022-11-18T09:43:41.878Z,59.70
2022-11-18T09:46:53.948Z,20.90
2022-11-18T09:49:28.957Z,21.40
2022-11-18T09:51:57.674Z,19.60
2022-11-18T09:54:29.889Z,18.00
2022-11-18T09:56:57.226Z,29.60
2022-11-18T09:59:31.769Z,16.40
2022-11-18T10:02:17.503Z,7.80
2022-11-18T10:04:44.783Z,9.30
2022-11-18T10:07:27.319Z,25.90
2022-11-18T10:09:56.593Z,26.50
2022-11-18T10:12:42.101Z,31.10
2022-11-18T10:15:32.875Z,38.60
2022-11-18T10:18:52.809Z,39.50
2022-11-18T10:21:34.740Z,30.90
2022-11-18T10:24:17.249Z,27.00
2022-11-18T10:26:44.993Z,7.10
2022-11-18T10:29:12.277Z,5.90
2022-11-18T10:32:04.766Z,4.80
2022-11-18T10:34:33.631Z,8.60
2022-11-18T10:37:23.597Z,16.90
2022-11-18T10:40:00.983Z,25.80
2022-11-18T10:42:46.669Z,180.10
2022-11-18T10:45:19.865Z,97.90
2022-11-18T10:48:03.034Z,39.10
2022-11-18T10:50:55.071Z,31.50
2022-11-18T10:53:37.557Z,26.70
2022-11-18T10:56:13.996Z,10.30
2022-11-18T10:58:43.378Z,23.40
2022-11-18T11:01:16.331Z,24.80
2022-11-18T11:03:58.642Z,17.20
2022-11-18T11:06:38.419Z,28.50
2022-11-18T11:09:10.149Z,40.10
2022-11-18T11:11:43.734Z,18.60
2022-11-18T11:14:16.934Z,7.60
2022-11-18T11:17:07.679Z,16.30
2022-11-18T11:19:53.127Z,15.80
2022-11-18T11:22:20.354Z,15.40
2022-11-18T11:24:47.476Z,22.70
2022-11-18T11:30:19.332Z,17.60
2022-11-18T11:33:15.437Z,20.80
2022-11-18T11:35:42.488Z,18.00
2022-11-18T11:38:39.690Z,13.10
2022-11-18T11:41:31.674Z,12.30
2022-11-18T11:44:36.456Z,18.20
2022-11-18T11:47:47.408Z,22.40
2022-11-18T11:51:04.975Z,19.00
2022-11-18T11:54:00.204Z,41.80
2022-11-18T11:56:47.011Z,20.30
2022-11-18T11:59:20.322Z,16.00
2022-11-18T12:01:50.786Z,12.30
2022-11-18T12:04:30.304Z,5.70
2022-11-18T12:06:59.109Z,13.00
2022-11-18T12:09:32.129Z,9.80
2022-11-18T12:12:38.436Z,5.90
2022-11-18T12:15:33.940Z,14.50
2022-11-18T12:18:26.535Z,12.00
2022-11-18T12:20:56.655Z,7.70
2022-11-18T12:23:28.516Z,11.00
2022-11-18T12:25:58.482Z,8.80
2022-11-18T12:28:37.463Z,12.40
2022-11-18T12:31:16.592Z,8.30
2022-11-18T12:33:49.835Z,10.20
2022-11-18T12:36:27.098Z,18.20
2022-11-18T12:38:55.452Z,23.00
2022-11-18T12:41:59.928Z,30.80
2022-11-18T12:44:29.486Z,18.10
2022-11-18T12:46:57.506Z,8.80
2022-11-18T12:49:24.504Z,10.60
2022-11-18T12:51:53.906Z,7.50
2022-11-18T12:54:35.163Z,29.70
2022-11-18T12:57:18.595Z,81.40
2022-11-18T12:59:45.625Z,28.10
2022-11-18T13:02:12.690Z,21.50
2022-11-18T13:04:44.544Z,14.90
2022-11-18T13:07:39.589Z,21.10
2022-11-18T13:10:22.709Z,10.30
2022-11-18T13:12:51.136Z,7.80
2022-11-18T13:15:37.666Z,7.70
2022-11-18T13:18:13.957Z,6.40
2022-11-18T13:20:42.848Z,14.10
2022-11-18T13:23:28.455Z,19.80
2022-11-18T13:26:06.052Z,18.50
2022-11-18T13:28:38.553Z,9.90
2022-11-18T13:31:14.575Z,11.30
2022-11-18T13:33:41.736Z,12.90
2022-11-18T13:36:26.326Z,14.50
2022-11-18T13:38:59.619Z,62.70
2022-11-18T13:41:32.895Z,38.30
2022-11-18T13:44:36.132Z,25.20
2022-11-18T13:47:15.750Z,12.60
2022-11-18T13:50:07.272Z,12.60
2022-11-18T13:53:01.404Z,19.90
2022-11-18T13:56:02.452Z,47.10
2022-11-18T14:01:35.228Z,76.30
2022-11-18T14:04:15.309Z,60.70
2022-11-18T14:06:42.611Z,42.00
2022-11-18T14:09:18.817Z,40.80
2022-11-18T14:11:58.802Z,27.00
2022-11-18T14:14:38.476Z,10.40
2022-11-18T14:17:26.154Z,11.90
2022-11-18T14:20:01.794Z,48.40
2022-11-18T14:25:20.662Z,40.20
2022-11-18T14:27:49.852Z,81.20
2022-11-18T14:30:32.188Z,39.80
2022-11-18T14:33:17.689Z,51.30
2022-11-18T14:35:54.390Z,49.20
2022-11-18T14:38:57.459Z,41.10
2022-11-18T14:41:16.364Z,99.20
2022-11-18T14:43:46.217Z,78.40
2022-11-18T14:46:17.883Z,49.90
2022-11-18T14:48:45.624Z,37.90
2022-11-18T14:51:14.420Z,44.00
2022-11-18T14:53:42.414Z,38.90
2022-11-18T14:56:25.791Z,50.80
2022-11-18T14:58:53.017Z,84.30
2022-11-18T15:01:20.124Z,38.20
2022-11-18T15:03:47.344Z,33.60
2022-11-18T15:06:16.157Z,25.80
2022-11-18T15:08:45.209Z,31.20
2022-11-18T15:11:12.251Z,25.90
2022-11-18T15:13:39.913Z,41.10
2022-11-18T15:16:15.512Z,32.70
2022-11-18T15:21:10.887Z,88.30
2022-11-18T15:23:37.938Z,76.40
2022-11-18T15:26:18.379Z,26.40
2022-11-18T15:28:46.628Z,19.50
2022-11-18T15:31:13.705Z,24.10
2022-11-18T15:33:40.798Z,20.70
2022-11-18T15:36:18.445Z,42.70
2022-11-18T15:38:46.184Z,70.70
2022-11-18T15:41:18.710Z,95.10
2022-11-18T15:43:46.374Z,54.60
2022-11-18T15:46:15.098Z,27.30
2022-11-18T15:48:42.487Z,22.00
2022-11-18T15:51:12.185Z,30.50
2022-11-18T15:53:39.978Z,26.90
2022-11-18T15:56:24.782Z,61.10
2022-11-18T15:58:57.220Z,69.70
2022-11-18T16:01:27.093Z,43.80
2022-11-18T16:03:54.531Z,45.10
2022-11-18T16:06:22.501Z,41.80
2022-11-18T16:08:52.171Z,167.30
2022-11-18T16:11:41.580Z,103.70
2022-11-18T16:14:10.983Z,103.60
2022-11-18T16:16:39.490Z,72.40
2022-11-18T16:19:08.920Z,41.00
2022-11-18T16:21:39.450Z,35.80
2022-11-18T16:24:09.138Z,84.60
2022-11-18T16:26:37.314Z,41.20
2022-11-18T16:29:05.534Z,73.50
2022-11-18T16:31:43.659Z,31.50
2022-11-18T16:34:13.762Z,24.60
2022-11-18T16:36:43.908Z,22.20
2022-11-18T16:39:13.906Z,20.20
2022-11-18T16:41:42.688Z,38.40
2022-11-18T16:44:14.241Z,34.10
2022-11-18T16:46:45.929Z,19.30
2022-11-18T16:49:14.625Z,22.90
2022-11-18T16:51:43.736Z,19.60
2022-11-18T16:54:19.714Z,11.50
2022-11-18T16:56:48.094Z,19.20
2022-11-18T16:59:22.557Z,15.50
2022-11-18T17:01:50.694Z,14.60
2022-11-18T17:04:19.027Z,14.20
2022-11-18T17:06:46.558Z,317.90
2022-11-18T17:09:16.667Z,667.50
2022-11-18T17:11:44.261Z,966.90
2022-11-18T17:14:12.382Z,414.50
2022-11-18T17:16:39.710Z,126.80
2022-11-18T17:19:11.589Z,126.00
2022-11-18T17:21:39.551Z,105.40
2022-11-18T17:24:07.229Z,158.60
2022-11-18T17:26:34.678Z,442.00
2022-11-18T17:29:01.916Z,483.20
2022-11-18T17:31:29.170Z,425.10
2022-11-18T17:33:56.676Z,265.60
2022-11-18T17:36:26.441Z,1097.20
2022-11-18T17:38:55.825Z,605.40
2022-11-18T17:41:44.762Z,385.60
2022-11-18T17:44:14.286Z,209.50
2022-11-18T17:46:42.127Z,271.90
2022-11-18T17:49:18.876Z,151.50
2022-11-18T17:51:48.821Z,88.30
2022-11-18T17:54:16.246Z,155.00
2022-11-18T17:56:43.544Z,105.20
2022-11-18T17:59:10.940Z,89.70
2022-11-18T18:01:38.063Z,69.00
2022-11-18T18:04:05.389Z,106.60
2022-11-18T18:06:32.415Z,130.20
2022-11-18T18:09:00.079Z,77.60
2022-11-18T18:11:28.514Z,65.80
2022-11-18T18:14:14.259Z,39.80
2022-11-18T18:16:44.415Z,45.80
2022-11-18T18:19:14.584Z,65.50
2022-11-18T18:21:41.581Z,34.60
2022-11-18T18:24:09.858Z,39.60
2022-11-18T18:26:37.122Z,50.80
2022-11-18T18:29:05.108Z,35.70
2022-11-18T18:31:36.927Z,22.70
2022-11-18T18:34:04.581Z,21.30
2022-11-18T18:36:32.345Z,23.40
2022-11-18T18:39:00.023Z,33.80
2022-11-18T18:41:27.186Z,310.30
2022-11-18T18:43:54.232Z,322.20
2022-11-18T18:46:30.932Z,187.40
2022-11-18T18:49:12.320Z,69.30
2022-11-18T18:51:40.464Z,173.70
2022-11-18T18:54:10.359Z,119.80
2022-11-18T18:56:38.727Z,61.60
2022-11-18T18:59:06.882Z,50.00
2022-11-18T19:01:34.174Z,30.30
2022-11-18T19:04:04.153Z,45.80
2022-11-18T19:09:23.412Z,38.50
2022-11-18T19:12:09.525Z,49.90
2022-11-18T19:14:36.582Z,31.80
2022-11-18T19:17:10.063Z,49.60
2022-11-18T19:19:57.322Z,56.80
2022-11-18T19:22:32.415Z,46.40
2022-11-18T19:25:00.542Z,36.80
2022-11-18T19:27:28.357Z,55.30
2022-11-18T19:30:01.018Z,55.10
2022-11-18T19:32:31.074Z,37.70
2022-11-18T19:34:58.113Z,41.40
2022-11-18T19:37:25.149Z,33.20
2022-11-18T19:39:52.223Z,33.40
2022-11-18T19:42:19.295Z,49.60
2022-11-18T19:44:46.347Z,61.00
2022-11-18T19:47:13.396Z,56.50
2022-11-18T19:49:40.389Z,49.00
2022-11-18T19:52:07.421Z,46.90
2022-11-18T19:54:34.977Z,54.20
2022-11-18T19:57:04.045Z,59.50
2022-11-18T19:59:31.192Z,60.90
2022-11-18T20:02:01.261Z,56.50
2022-11-18T20:04:28.414Z,83.50
2022-11-18T20:06:56.874Z,49.20
2022-11-18T20:09:25.446Z,44.90
2022-11-18T20:11:52.652Z,99.70
2022-11-18T20:14:19.754Z,108.70
2022-11-18T20:17:00.454Z,111.60
2022-11-18T20:20:16.399Z,119.90
2022-11-18T20:22:43.449Z,404.20
2022-11-18T20:25:10.524Z,529.50
2022-11-18T20:27:37.830Z,571.50
2022-11-18T20:30:05.155Z,659.40
2022-11-18T20:32:32.232Z,635.70
2022-11-18T20:34:59.279Z,536.30
2022-11-18T20:37:28.107Z,548.50
2022-11-18T20:39:55.372Z,612.80
2022-11-18T20:42:41.419Z,617.90
2022-11-18T20:45:08.979Z,477.60
2022-11-18T20:47:35.998Z,217.70
2022-11-18T20:50:03.073Z,88.70
2022-11-18T20:52:30.044Z,59.10
2022-11-18T20:55:01.306Z,42.30
2022-11-18T20:57:31.342Z,46.20
2022-11-18T20:59:58.362Z,45.10
2022-11-18T21:02:25.406Z,38.30
2022-11-18T21:04:52.512Z,34.40
2022-11-18T21:07:19.608Z,59.00
2022-11-18T21:09:47.960Z,55.40
2022-11-18T21:12:14.954Z,71.40
2022-11-18T21:14:42.184Z,127.50
2022-11-18T21:17:09.179Z,153.80
2022-11-18T21:19:36.176Z,165.70
2022-11-18T21:22:04.713Z,153.60
2022-11-18T21:24:34.123Z,129.40
2022-11-18T21:27:02.773Z,133.10
2022-11-18T21:29:31.461Z,150.30
2022-11-18T21:32:02.660Z,173.80
2022-11-18T21:34:30.292Z,127.20
2022-11-18T21:36:58.269Z,131.30
2022-11-18T21:39:25.543Z,192.70
2022-11-18T21:41:56.243Z,180.40
2022-11-18T21:44:25.420Z,256.30
2022-11-18T21:46:53.034Z,311.10
2022-11-18T21:49:20.049Z,305.90
2022-11-18T21:51:47.310Z,277.50
2022-11-18T21:54:16.144Z,230.60
2022-11-18T21:56:43.260Z,235.20
2022-11-18T21:59:10.332Z,178.80
2022-11-18T22:01:37.375Z,168.10
2022-11-18T22:04:05.835Z,137.40
2022-11-18T22:06:34.540Z,140.10
2022-11-18T22:09:03.541Z,113.50
2022-11-18T22:11:30.968Z,76.80
2022-11-18T22:13:58.356Z,56.00
2022-11-18T22:16:26.188Z,42.10
2022-11-18T22:19:00.256Z,51.50
2022-11-18T22:21:28.406Z,40.20
2022-11-18T22:24:00.328Z,44.90
2022-11-18T22:26:28.623Z,43.60
2022-11-18T22:28:57.874Z,37.60
2022-11-18T22:31:27.026Z,52.50
2022-11-18T22:33:55.902Z,122.10
2022-11-18T22:36:24.696Z,63.80
2022-11-18T22:38:52.938Z,52.70
2022-11-18T22:41:41.932Z,50.20
2022-11-18T22:44:10.303Z,116.50
2022-11-18T22:46:38.794Z,81.50
2022-11-18T22:49:12.551Z,175.20
2022-11-18T22:51:52.558Z,101.90
2022-11-18T22:57:06.669Z,38.10
2022-11-18T22:59:33.868Z,30.10
2022-11-18T23:02:01.927Z,27.20
2022-11-18T23:04:28.961Z,68.60
2022-11-18T23:06:56.097Z,85.80
2022-11-18T23:09:23.237Z,48.60
2022-11-18T23:12:09.178Z,32.30
2022-11-18T23:17:04.556Z,24.10
2022-11-18T23:19:31.650Z,23.10
2022-11-18T23:21:58.731Z,46.40
2022-11-18T23:24:25.802Z,33.10
2022-11-18T23:26:52.749Z,118.90
2022-11-18T23:29:20.683Z,59.80
2022-11-18T23:31:48.250Z,52.90
2022-11-18T23:34:15.682Z,50.30
2022-11-18T23:36:43.611Z,75.80
2022-11-18T23:39:10.726Z,77.20
2022-11-18T23:41:37.953Z,48.40
2022-11-18T23:44:06.029Z,39.60
2022-11-18T23:46:33.613Z,55.90
2022-11-18T23:49:00.993Z,77.30
2022-11-18T23:51:28.144Z,51.20
2022-11-18T23:53:57.586Z,34.80
2022-11-18T23:56:26.571Z,36.30
2022-11-18T23:58:55.943Z,50.50
